Aviation Digital Data Service (ADDS)

Output produced by METARs form (0302 UTC 29 August 2015)
found at http://www.aviationweather.gov/adds/metars/
 
KDOV 290258Z AUTO 18004KT 10SM CLR 20/15 A3018 RMK AO2 SLP223 T02020153 51015 VISNO RWY19 CHINO RWY19 $
TAF KDOV 2900/3006 VRB05KT 9999 FEW060 QNH3010INS 
     BECMG 2912/2913 18009KT 9999 SCT040 QNH3009INS TX29/2920Z TN16/2910Z